Boo Sonier — WDG3281 — position and weather

sailwx.info

Track history (hours):
 
Tides and Currents Weather Stations Pressure Air Temp Water Temp Dewpoint Dewpoint Depression Visibility Wind Speed Wind Dir Waves Ship Positions

Boo Sonier

Owner: LeBeouf Bros. Towing, LLC, Houma, LA. More information available from US FCC via Universal Licensing System and Coast Guard Vessel Documentation Center.

Last reported at 2018-Jan-19 11:22 UTC. Time now 2018-Jan-19 11:39 UTC.
Position N 30°13' W 093°16'.

Length 21 m.

Type: Tug. MMSI: 367524420.

Date/timePositionNaut miles runAvg speedWind from/ knotsBaromVisibWave heightAir tempDewpointWater temp
2018-Jan-19 11:22N 30°13' W 093°16'0 0.0
2018-Jan-19 10:58N 30°13' W 093°16'0 0.0
2018-Jan-19 10:27N 30°13' W 093°16'0 0.0
2018-Jan-19 09:58N 30°13' W 093°16'0 0.0
2018-Jan-19 09:28N 30°13' W 093°16'0 0.0
2018-Jan-19 09:01N 30°13' W 093°16'0 0.0
2018-Jan-19 08:28N 30°13' W 093°16'0 0.0
2018-Jan-19 07:57N 30°13' W 093°16'0 0.0
2018-Jan-19 07:31N 30°13' W 093°16'0 0.0
2018-Jan-19 06:58N 30°13' W 093°16'0 0.0
2018-Jan-19 06:28N 30°13' W 093°16'0 0.0
2018-Jan-19 05:55N 30°13' W 093°16'0 0.0
2018-Jan-19 05:31N 30°13' W 093°16'0 0.0
2018-Jan-19 04:55N 30°13' W 093°16'0 0.0
2018-Jan-19 04:31N 30°13' W 093°16'0 0.0
2018-Jan-19 03:58N 30°13' W 093°16'0 0.0
2018-Jan-19 03:31N 30°13' W 093°16'0 0.0
2018-Jan-19 02:57N 30°13' W 093°16'0 0.0
2018-Jan-19 02:31N 30°13' W 093°16'0 0.0
2018-Jan-19 01:51N 30°13' W 093°16'0 0.0
2018-Jan-19 01:31N 30°13' W 093°16'0 0.1
2018-Jan-19 01:01N 30°13' W 093°16'1 1.4
2018-Jan-19 00:31N 30°12' W 093°16'3 5.8
2018-Jan-19 00:00N 30°11' W 093°19'3 5.4
2018-Jan-18 23:31N 30°08' W 093°20'1 1.3
2018-Jan-18 23:00N 30°08' W 093°19'0 0.0
2018-Jan-18 22:30N 30°08' W 093°19'0 0.0
2018-Jan-18 22:00N 30°08' W 093°19'0 0.0
2018-Jan-18 21:30N 30°08' W 093°19'0 0.0
2018-Jan-18 21:00N 30°08' W 093°19'0 0.0
2018-Jan-18 20:30N 30°08' W 093°19'0 0.0
2018-Jan-18 20:00N 30°08' W 093°19'0 0.0
2018-Jan-18 19:30N 30°08' W 093°19'0 0.0
2018-Jan-18 19:00N 30°08' W 093°19'0 0.0
2018-Jan-18 18:30N 30°08' W 093°19'0 0.0
2018-Jan-18 18:00N 30°08' W 093°19'0 0.0
2018-Jan-18 17:30N 30°08' W 093°19'0 0.0
2018-Jan-18 17:00N 30°08' W 093°19'0 0.0
2018-Jan-18 16:30N 30°08' W 093°19'0 0.0
2018-Jan-18 16:00N 30°08' W 093°19'0 0.0
2018-Jan-18 15:30N 30°08' W 093°19'0 0.0
2018-Jan-18 15:00N 30°08' W 093°19'0 0.0
2018-Jan-18 14:30N 30°08' W 093°19'0 0.0
2018-Jan-18 14:00N 30°08' W 093°19'0 0.0
2018-Jan-18 13:30N 30°08' W 093°19'0 0.0
2018-Jan-18 13:00N 30°08' W 093°19'0 0.0
2018-Jan-18 12:30N 30°08' W 093°19'0 0.0
2018-Jan-18 12:00N 30°08' W 093°19'0 0.0
2018-Jan-18 11:30N 30°08' W 093°19'0 0.0
2018-Jan-18 11:00N 30°08' W 093°19'0 0.1
2018-Jan-18 10:29N 30°08' W 093°19'0 0.1
2018-Jan-18 09:59N 30°08' W 093°19'0 0.0
2018-Jan-18 09:29N 30°08' W 093°19'0 0.0
2018-Jan-18 08:59N 30°08' W 093°19'0 0.0
2018-Jan-18 08:29N 30°08' W 093°19'0 0.0
2018-Jan-18 07:59N 30°08' W 093°19'0 0.0
2018-Jan-18 07:29N 30°08' W 093°19'0 0.0
2018-Jan-18 06:59N 30°08' W 093°19'0 0.0
2018-Jan-18 06:29N 30°08' W 093°19'0 0.0
2018-Jan-18 05:59N 30°08' W 093°19'0 0.0
2018-Jan-18 05:29N 30°08' W 093°19'0 0.0
2018-Jan-18 04:59N 30°08' W 093°19'0 0.0
2018-Jan-18 04:29N 30°08' W 093°19'0 0.0
2018-Jan-18 03:59N 30°08' W 093°19'0 0.0
2018-Jan-18 03:29N 30°08' W 093°19'0 0.0
2018-Jan-18 02:59N 30°08' W 093°19'0 0.0
2018-Jan-18 02:29N 30°08' W 093°19'0 0.0
2018-Jan-18 01:59N 30°08' W 093°19'0 0.0
2018-Jan-18 01:29N 30°08' W 093°19'0 0.0
2018-Jan-18 00:59N 30°08' W 093°19'3 3.5
2018-Jan-18 00:00N 30°05' W 093°20'0 5.7
2018-Jan-17 23:57N 30°05' W 093°20'  
2018-Jan-12 14:57N 29°42' W 095°03'0 0.0
2018-Jan-12 14:30N 29°42' W 095°03'0 0.0
2018-Jan-12 14:00N 29°42' W 095°03'0 0.0
2018-Jan-12 13:30N 29°42' W 095°03'0 0.0
2018-Jan-12 13:00N 29°42' W 095°03'0 0.0
2018-Jan-12 12:30N 29°42' W 095°03'0 0.0
2018-Jan-12 12:00N 29°42' W 095°03'0 0.0
2018-Jan-12 11:30N 29°42' W 095°03'0 0.0
2018-Jan-12 11:00N 29°42' W 095°03'0 0.0
2018-Jan-12 10:30N 29°42' W 095°03'0 0.0
2018-Jan-12 10:00N 29°42' W 095°03'0 0.0
2018-Jan-12 09:30N 29°42' W 095°03'0 0.0
2018-Jan-12 09:00N 29°42' W 095°03'0 0.0
2018-Jan-12 08:30N 29°42' W 095°03'0 0.0
2018-Jan-12 08:00N 29°42' W 095°03'0 0.0
2018-Jan-12 07:30N 29°42' W 095°03'0 0.0
2018-Jan-12 07:00N 29°42' W 095°03'0 0.0
2018-Jan-12 06:30N 29°42' W 095°03'0 0.0
2018-Jan-12 06:00N 29°42' W 095°03'0 0.0
2018-Jan-12 05:30N 29°42' W 095°03'0 0.0
2018-Jan-12 05:00N 29°42' W 095°03'0 0.0
2018-Jan-12 04:30N 29°42' W 095°03'0 0.0
2018-Jan-12 04:00N 29°42' W 095°03'0 0.0
2018-Jan-12 03:30N 29°42' W 095°03'0 0.0
2018-Jan-12 03:00N 29°42' W 095°03'0 0.0
2018-Jan-12 02:30N 29°42' W 095°03'0 0.0
2018-Jan-12 02:00N 29°42' W 095°03'0 0.0
2018-Jan-12 01:30N 29°42' W 095°03'0 0.0
2018-Jan-12 01:00N 29°42' W 095°03'0 0.0
2018-Jan-12 00:30N 29°42' W 095°03'0 0.0
2018-Jan-12 00:00N 29°42' W 095°03'0 0.0
2018-Jan-11 23:30N 29°42' W 095°03'0 0.1
2018-Jan-11 21:47N 29°42' W 095°03'0 0.0
2018-Jan-11 21:26N 29°42' W 095°03'0 0.0
2018-Jan-11 20:56N 29°42' W 095°03'0 0.0
2018-Jan-11 19:32N 29°42' W 095°03'0 0.1
2018-Jan-11 19:29N 29°42' W 095°03'0 0.2
2018-Jan-11 18:55N 29°42' W 095°03'0 0.0
2018-Jan-11 17:55N 29°42' W 095°03'0 0.0
2018-Jan-11 17:28N 29°42' W 095°03'0 0.0
2018-Jan-11 16:43N 29°42' W 095°03'0 0.0
2018-Jan-11 16:13N 29°42' W 095°03'0 0.0
2018-Jan-11 15:46N 29°42' W 095°03'0 0.0
2018-Jan-11 15:19N 29°42' W 095°03'0 0.0
2018-Jan-11 14:58N 29°42' W 095°03'0 0.0
2018-Jan-11 14:25N 29°42' W 095°03'0 0.0
2018-Jan-11 13:55N 29°42' W 095°03'0 0.0
2018-Jan-11 13:28N 29°42' W 095°03'0 0.0
2018-Jan-11 12:55N 29°42' W 095°03'0 0.0
2018-Jan-11 12:19N 29°42' W 095°03'0 0.0
2018-Jan-11 11:58N 29°42' W 095°03'0 0.0
2018-Jan-11 11:16N 29°42' W 095°03'0 0.0
2018-Jan-11 10:55N 29°42' W 095°03'0 0.0
2018-Jan-11 10:28N 29°42' W 095°03'0 0.0
2018-Jan-11 09:55N 29°42' W 095°03'0 0.0
2018-Jan-11 09:28N 29°42' W 095°03'0 0.0
2018-Jan-11 08:58N 29°42' W 095°03'0 0.0
2018-Jan-11 08:28N 29°42' W 095°03'0 0.0
2018-Jan-11 07:58N 29°42' W 095°03'0 0.0
2018-Jan-11 07:25N 29°42' W 095°03'0 0.0
2018-Jan-11 06:58N 29°42' W 095°03'0 0.0
2018-Jan-11 06:28N 29°42' W 095°03'0 0.0
2018-Jan-11 05:58N 29°42' W 095°03'0 0.0
2018-Jan-11 05:28N 29°42' W 095°03'0 0.0
2018-Jan-11 04:46N 29°42' W 095°03'0 0.0
2018-Jan-11 04:28N 29°42' W 095°03'0 0.0
2018-Jan-11 03:52N 29°42' W 095°03'0 0.0
2018-Jan-11 03:25N 29°42' W 095°03'0 0.0
2018-Jan-11 02:55N 29°42' W 095°03'0 0.0
2018-Jan-11 02:25N 29°42' W 095°03'0 0.0
2018-Jan-11 01:55N 29°42' W 095°03'0 0.0
2018-Jan-11 01:28N 29°42' W 095°03'0 0.0
2018-Jan-11 00:52N 29°42' W 095°03'0 0.0
2018-Jan-11 00:22N 29°42' W 095°03'0 0.0
2018-Jan-10 23:58N 29°42' W 095°03'0 0.0
2018-Jan-10 22:43N 29°42' W 095°03'0 0.0
2018-Jan-10 22:25N 29°42' W 095°03'0 0.0
2018-Jan-10 21:55N 29°42' W 095°03'0 0.0
2018-Jan-10 21:25N 29°42' W 095°03'0 0.0
2018-Jan-10 20:55N 29°42' W 095°03'0 0.0
2018-Jan-10 20:25N 29°42' W 095°03'0 0.0
2018-Jan-10 18:28N 29°42' W 095°03'0 0.0
2018-Jan-10 17:10N 29°42' W 095°03'0 0.0
2018-Jan-10 16:49N 29°42' W 095°03'0 0.0
2018-Jan-10 16:25N 29°42' W 095°03'0 0.0
2018-Jan-10 15:43N 29°42' W 095°03'0 0.0
2018-Jan-10 15:22N 29°42' W 095°03'0 0.0
2018-Jan-10 14:25N 29°42' W 095°03'0 0.0
2018-Jan-10 13:58N 29°42' W 095°03'0 0.0
2018-Jan-10 13:28N 29°42' W 095°03'0 0.0
2018-Jan-10 12:58N 29°42' W 095°03'0 0.0
2018-Jan-10 12:28N 29°42' W 095°03'0 0.0
2018-Jan-10 11:55N 29°42' W 095°03'0 0.0
2018-Jan-10 11:25N 29°42' W 095°03'0 0.0
2018-Jan-10 10:55N 29°42' W 095°03'0 0.0
2018-Jan-10 10:25N 29°42' W 095°03'0 0.0
2018-Jan-10 09:55N 29°42' W 095°03'0 0.0
2018-Jan-10 09:28N 29°42' W 095°03'0 0.0
2018-Jan-10 08:55N 29°42' W 095°03'0 0.0
2018-Jan-10 08:07N 29°42' W 095°03'0 0.0
2018-Jan-10 07:58N 29°42' W 095°03'0 0.0
2018-Jan-10 07:25N 29°42' W 095°03'0 0.0
2018-Jan-10 06:58N 29°42' W 095°03'0 0.0
2018-Jan-10 06:25N 29°42' W 095°03'0 0.0
2018-Jan-10 05:55N 29°42' W 095°03'0 0.0
2018-Jan-10 05:19N 29°42' W 095°03'0 0.0
2018-Jan-10 04:58N 29°42' W 095°03'0 0.0
2018-Jan-10 04:28N 29°42' W 095°03'0 0.0
2018-Jan-10 03:58N 29°42' W 095°03'0 0.0
2018-Jan-10 03:28N 29°42' W 095°03'0 0.0
2018-Jan-10 02:46N 29°42' W 095°03'0 0.0
2018-Jan-10 02:28N 29°42' W 095°03'0 0.0
2018-Jan-10 01:49N 29°42' W 095°03'0 0.0
2018-Jan-10 01:25N 29°42' W 095°03'0 0.0
2018-Jan-10 00:49N 29°42' W 095°03'0 0.0
2018-Jan-10 00:28N 29°42' W 095°03'0 0.0
2018-Jan-09 23:55N 29°42' W 095°03'0 0.0
2018-Jan-09 23:28N 29°42' W 095°03'0 0.0
2018-Jan-09 22:58N 29°42' W 095°03'0 0.0
2018-Jan-09 22:28N 29°42' W 095°03'0 0.0
2018-Jan-09 20:07N 29°42' W 095°03'0 0.0
2018-Jan-09 19:58N 29°42' W 095°03'0 0.0
2018-Jan-09 19:25N 29°42' W 095°03'0 0.0
2018-Jan-09 18:58N 29°42' W 095°03'0 0.0
2018-Jan-09 18:28N 29°42' W 095°03'0 0.0
2018-Jan-09 17:58N 29°42' W 095°03'0 0.0
2018-Jan-09 17:28N 29°42' W 095°03'0 0.0
2018-Jan-09 16:58N 29°42' W 095°03'0 0.0
2018-Jan-09 16:28N 29°42' W 095°03'1 3.0
2018-Jan-09 16:00N 29°42' W 095°01'  
Track history (hours):
 
Tides and Currents Weather Stations Pressure Air Temp Water Temp Dewpoint Dewpoint Depression Visibility Wind Speed Wind Dir Waves Ship Positions

Boo Sonier

Owner: LeBeouf Bros. Towing, LLC, Houma, LA. More information available from US FCC via Universal Licensing System and Coast Guard Vessel Documentation Center.

Last reported at 2018-Jan-19 11:22 UTC. Time now 2018-Jan-19 11:39 UTC.
Position N 30°13' W 093°16'.

Length 21 m.

Type: Tug. MMSI: 367524420.

Date/timePositionNaut miles runAvg speedWind from/ knotsBaromVisibWave heightAir tempDewpointWater temp
2018-Jan-19 11:22N 30°13' W 093°16'0 0.0
2018-Jan-19 10:58N 30°13' W 093°16'0 0.0
2018-Jan-19 10:27N 30°13' W 093°16'0 0.0
2018-Jan-19 09:58N 30°13' W 093°16'0 0.0
2018-Jan-19 09:28N 30°13' W 093°16'0 0.0
2018-Jan-19 09:01N 30°13' W 093°16'0 0.0
2018-Jan-19 08:28N 30°13' W 093°16'0 0.0
2018-Jan-19 07:57N 30°13' W 093°16'0 0.0
2018-Jan-19 07:31N 30°13' W 093°16'0 0.0
2018-Jan-19 06:58N 30°13' W 093°16'0 0.0
2018-Jan-19 06:28N 30°13' W 093°16'0 0.0
2018-Jan-19 05:55N 30°13' W 093°16'0 0.0
2018-Jan-19 05:31N 30°13' W 093°16'0 0.0
2018-Jan-19 04:55N 30°13' W 093°16'0 0.0
2018-Jan-19 04:31N 30°13' W 093°16'0 0.0
2018-Jan-19 03:58N 30°13' W 093°16'0 0.0
2018-Jan-19 03:31N 30°13' W 093°16'0 0.0
2018-Jan-19 02:57N 30°13' W 093°16'0 0.0
2018-Jan-19 02:31N 30°13' W 093°16'0 0.0
2018-Jan-19 01:51N 30°13' W 093°16'0 0.0
2018-Jan-19 01:31N 30°13' W 093°16'0 0.1
2018-Jan-19 01:01N 30°13' W 093°16'1 1.4
2018-Jan-19 00:31N 30°12' W 093°16'3 5.8
2018-Jan-19 00:00N 30°11' W 093°19'3 5.4
2018-Jan-18 23:31N 30°08' W 093°20'1 1.3
2018-Jan-18 23:00N 30°08' W 093°19'0 0.0
2018-Jan-18 22:30N 30°08' W 093°19'0 0.0
2018-Jan-18 22:00N 30°08' W 093°19'0 0.0
2018-Jan-18 21:30N 30°08' W 093°19'0 0.0
2018-Jan-18 21:00N 30°08' W 093°19'0 0.0
2018-Jan-18 20:30N 30°08' W 093°19'0 0.0
2018-Jan-18 20:00N 30°08' W 093°19'0 0.0
2018-Jan-18 19:30N 30°08' W 093°19'0 0.0
2018-Jan-18 19:00N 30°08' W 093°19'0 0.0
2018-Jan-18 18:30N 30°08' W 093°19'0 0.0
2018-Jan-18 18:00N 30°08' W 093°19'0 0.0
2018-Jan-18 17:30N 30°08' W 093°19'0 0.0
2018-Jan-18 17:00N 30°08' W 093°19'0 0.0
2018-Jan-18 16:30N 30°08' W 093°19'0 0.0
2018-Jan-18 16:00N 30°08' W 093°19'0 0.0
2018-Jan-18 15:30N 30°08' W 093°19'0 0.0
2018-Jan-18 15:00N 30°08' W 093°19'0 0.0
2018-Jan-18 14:30N 30°08' W 093°19'0 0.0
2018-Jan-18 14:00N 30°08' W 093°19'0 0.0
2018-Jan-18 13:30N 30°08' W 093°19'0 0.0
2018-Jan-18 13:00N 30°08' W 093°19'0 0.0
2018-Jan-18 12:30N 30°08' W 093°19'0 0.0
2018-Jan-18 12:00N 30°08' W 093°19'0 0.0
2018-Jan-18 11:30N 30°08' W 093°19'0 0.0
2018-Jan-18 11:00N 30°08' W 093°19'0 0.1
2018-Jan-18 10:29N 30°08' W 093°19'0 0.1
2018-Jan-18 09:59N 30°08' W 093°19'0 0.0
2018-Jan-18 09:29N 30°08' W 093°19'0 0.0
2018-Jan-18 08:59N 30°08' W 093°19'0 0.0
2018-Jan-18 08:29N 30°08' W 093°19'0 0.0
2018-Jan-18 07:59N 30°08' W 093°19'0 0.0
2018-Jan-18 07:29N 30°08' W 093°19'0 0.0
2018-Jan-18 06:59N 30°08' W 093°19'0 0.0
2018-Jan-18 06:29N 30°08' W 093°19'0 0.0
2018-Jan-18 05:59N 30°08' W 093°19'0 0.0
2018-Jan-18 05:29N 30°08' W 093°19'0 0.0
2018-Jan-18 04:59N 30°08' W 093°19'0 0.0
2018-Jan-18 04:29N 30°08' W 093°19'0 0.0
2018-Jan-18 03:59N 30°08' W 093°19'0 0.0
2018-Jan-18 03:29N 30°08' W 093°19'0 0.0
2018-Jan-18 02:59N 30°08' W 093°19'0 0.0
2018-Jan-18 02:29N 30°08' W 093°19'0 0.0
2018-Jan-18 01:59N 30°08' W 093°19'0 0.0
2018-Jan-18 01:29N 30°08' W 093°19'0 0.0
2018-Jan-18 00:59N 30°08' W 093°19'3 3.5
2018-Jan-18 00:00N 30°05' W 093°20'0 5.7
2018-Jan-17 23:57N 30°05' W 093°20'  
2018-Jan-12 14:57N 29°42' W 095°03'0 0.0
2018-Jan-12 14:30N 29°42' W 095°03'0 0.0
2018-Jan-12 14:00N 29°42' W 095°03'0 0.0
2018-Jan-12 13:30N 29°42' W 095°03'0 0.0
2018-Jan-12 13:00N 29°42' W 095°03'0 0.0
2018-Jan-12 12:30N 29°42' W 095°03'0 0.0
2018-Jan-12 12:00N 29°42' W 095°03'0 0.0
2018-Jan-12 11:30N 29°42' W 095°03'0 0.0
2018-Jan-12 11:00N 29°42' W 095°03'0 0.0
2018-Jan-12 10:30N 29°42' W 095°03'0 0.0
2018-Jan-12 10:00N 29°42' W 095°03'0 0.0
2018-Jan-12 09:30N 29°42' W 095°03'0 0.0
2018-Jan-12 09:00N 29°42' W 095°03'0 0.0
2018-Jan-12 08:30N 29°42' W 095°03'0 0.0
2018-Jan-12 08:00N 29°42' W 095°03'0 0.0
2018-Jan-12 07:30N 29°42' W 095°03'0 0.0
2018-Jan-12 07:00N 29°42' W 095°03'0 0.0
2018-Jan-12 06:30N 29°42' W 095°03'0 0.0
2018-Jan-12 06:00N 29°42' W 095°03'0 0.0
2018-Jan-12 05:30N 29°42' W 095°03'0 0.0
2018-Jan-12 05:00N 29°42' W 095°03'0 0.0
2018-Jan-12 04:30N 29°42' W 095°03'0 0.0
2018-Jan-12 04:00N 29°42' W 095°03'0 0.0
2018-Jan-12 03:30N 29°42' W 095°03'0 0.0
2018-Jan-12 03:00N 29°42' W 095°03'0 0.0
2018-Jan-12 02:30N 29°42' W 095°03'0 0.0
2018-Jan-12 02:00N 29°42' W 095°03'0 0.0
2018-Jan-12 01:30N 29°42' W 095°03'0 0.0
2018-Jan-12 01:00N 29°42' W 095°03'0 0.0
2018-Jan-12 00:30N 29°42' W 095°03'0 0.0
2018-Jan-12 00:00N 29°42' W 095°03'0 0.0
2018-Jan-11 23:30N 29°42' W 095°03'0 0.1
2018-Jan-11 21:47N 29°42' W 095°03'0 0.0
2018-Jan-11 21:26N 29°42' W 095°03'0 0.0
2018-Jan-11 20:56N 29°42' W 095°03'0 0.0
2018-Jan-11 19:32N 29°42' W 095°03'0 0.1
2018-Jan-11 19:29N 29°42' W 095°03'0 0.2
2018-Jan-11 18:55N 29°42' W 095°03'0 0.0
2018-Jan-11 17:55N 29°42' W 095°03'0 0.0
2018-Jan-11 17:28N 29°42' W 095°03'0 0.0
2018-Jan-11 16:43N 29°42' W 095°03'0 0.0
2018-Jan-11 16:13N 29°42' W 095°03'0 0.0
2018-Jan-11 15:46N 29°42' W 095°03'0 0.0
2018-Jan-11 15:19N 29°42' W 095°03'0 0.0
2018-Jan-11 14:58N 29°42' W 095°03'0 0.0
2018-Jan-11 14:25N 29°42' W 095°03'0 0.0
2018-Jan-11 13:55N 29°42' W 095°03'0 0.0
2018-Jan-11 13:28N 29°42' W 095°03'0 0.0
2018-Jan-11 12:55N 29°42' W 095°03'0 0.0
2018-Jan-11 12:19N 29°42' W 095°03'0 0.0
2018-Jan-11 11:58N 29°42' W 095°03'0 0.0
2018-Jan-11 11:16N 29°42' W 095°03'0 0.0
2018-Jan-11 10:55N 29°42' W 095°03'0 0.0
2018-Jan-11 10:28N 29°42' W 095°03'0 0.0
2018-Jan-11 09:55N 29°42' W 095°03'0 0.0
2018-Jan-11 09:28N 29°42' W 095°03'0 0.0
2018-Jan-11 08:58N 29°42' W 095°03'0 0.0
2018-Jan-11 08:28N 29°42' W 095°03'0 0.0
2018-Jan-11 07:58N 29°42' W 095°03'0 0.0
2018-Jan-11 07:25N 29°42' W 095°03'0 0.0
2018-Jan-11 06:58N 29°42' W 095°03'0 0.0
2018-Jan-11 06:28N 29°42' W 095°03'0 0.0
2018-Jan-11 05:58N 29°42' W 095°03'0 0.0
2018-Jan-11 05:28N 29°42' W 095°03'0 0.0
2018-Jan-11 04:46N 29°42' W 095°03'0 0.0
2018-Jan-11 04:28N 29°42' W 095°03'0 0.0
2018-Jan-11 03:52N 29°42' W 095°03'0 0.0
2018-Jan-11 03:25N 29°42' W 095°03'0 0.0
2018-Jan-11 02:55N 29°42' W 095°03'0 0.0
2018-Jan-11 02:25N 29°42' W 095°03'0 0.0
2018-Jan-11 01:55N 29°42' W 095°03'0 0.0
2018-Jan-11 01:28N 29°42' W 095°03'0 0.0
2018-Jan-11 00:52N 29°42' W 095°03'0 0.0
2018-Jan-11 00:22N 29°42' W 095°03'0 0.0
2018-Jan-10 23:58N 29°42' W 095°03'0 0.0
2018-Jan-10 22:43N 29°42' W 095°03'0 0.0
2018-Jan-10 22:25N 29°42' W 095°03'0 0.0
2018-Jan-10 21:55N 29°42' W 095°03'0 0.0
2018-Jan-10 21:25N 29°42' W 095°03'0 0.0
2018-Jan-10 20:55N 29°42' W 095°03'0 0.0
2018-Jan-10 20:25N 29°42' W 095°03'0 0.0
2018-Jan-10 18:28N 29°42' W 095°03'0 0.0
2018-Jan-10 17:10N 29°42' W 095°03'0 0.0
2018-Jan-10 16:49N 29°42' W 095°03'0 0.0
2018-Jan-10 16:25N 29°42' W 095°03'0 0.0
2018-Jan-10 15:43N 29°42' W 095°03'0 0.0
2018-Jan-10 15:22N 29°42' W 095°03'0 0.0
2018-Jan-10 14:25N 29°42' W 095°03'0 0.0
2018-Jan-10 13:58N 29°42' W 095°03'0 0.0
2018-Jan-10 13:28N 29°42' W 095°03'0 0.0
2018-Jan-10 12:58N 29°42' W 095°03'0 0.0
2018-Jan-10 12:28N 29°42' W 095°03'0 0.0
2018-Jan-10 11:55N 29°42' W 095°03'0 0.0
2018-Jan-10 11:25N 29°42' W 095°03'0 0.0
2018-Jan-10 10:55N 29°42' W 095°03'0 0.0
2018-Jan-10 10:25N 29°42' W 095°03'0 0.0
2018-Jan-10 09:55N 29°42' W 095°03'0 0.0
2018-Jan-10 09:28N 29°42' W 095°03'0 0.0
2018-Jan-10 08:55N 29°42' W 095°03'0 0.0
2018-Jan-10 08:07N 29°42' W 095°03'0 0.0
2018-Jan-10 07:58N 29°42' W 095°03'0 0.0
2018-Jan-10 07:25N 29°42' W 095°03'0 0.0
2018-Jan-10 06:58N 29°42' W 095°03'0 0.0
2018-Jan-10 06:25N 29°42' W 095°03'0 0.0
2018-Jan-10 05:55N 29°42' W 095°03'0 0.0
2018-Jan-10 05:19N 29°42' W 095°03'0 0.0
2018-Jan-10 04:58N 29°42' W 095°03'0 0.0
2018-Jan-10 04:28N 29°42' W 095°03'0 0.0
2018-Jan-10 03:58N 29°42' W 095°03'0 0.0
2018-Jan-10 03:28N 29°42' W 095°03'0 0.0
2018-Jan-10 02:46N 29°42' W 095°03'0 0.0
2018-Jan-10 02:28N 29°42' W 095°03'0 0.0
2018-Jan-10 01:49N 29°42' W 095°03'0 0.0
2018-Jan-10 01:25N 29°42' W 095°03'0 0.0
2018-Jan-10 00:49N 29°42' W 095°03'0 0.0
2018-Jan-10 00:28N 29°42' W 095°03'0 0.0
2018-Jan-09 23:55N 29°42' W 095°03'0 0.0
2018-Jan-09 23:28N 29°42' W 095°03'0 0.0
2018-Jan-09 22:58N 29°42' W 095°03'0 0.0
2018-Jan-09 22:28N 29°42' W 095°03'0 0.0
2018-Jan-09 20:07N 29°42' W 095°03'0 0.0
2018-Jan-09 19:58N 29°42' W 095°03'0 0.0
2018-Jan-09 19:25N 29°42' W 095°03'0 0.0
2018-Jan-09 18:58N 29°42' W 095°03'0 0.0
2018-Jan-09 18:28N 29°42' W 095°03'0 0.0
2018-Jan-09 17:58N 29°42' W 095°03'0 0.0
2018-Jan-09 17:28N 29°42' W 095°03'0 0.0
2018-Jan-09 16:58N 29°42' W 095°03'0 0.0
2018-Jan-09 16:28N 29°42' W 095°03'1 3.0
2018-Jan-09 16:00N 29°42' W 095°01'  

Dump ship's entire track history